Hayward Executive, CA

12:08 PM PDT on August 27, 2014 (GMT -0700)
San Francisco International | Change Station
CLOSE
Current Station
Airport
Location: San Francisco,
Elevation: 16 ft
Nearby Weather Stations

Elev 16 ft 37.62 °N, 122.37 °W | Updated 12 minutes ago

Partly Cloudy
Partly Cloudy
73 °F
Feels Like 73 °F
N
9
Wind Variable Wind from NW

Today
High -- | Low -- °F
--% Chance of Precip.
Yesterday
High -- | Low -- °F
Precip. -- in
6:34 AM 7:44 PM
Waxing Crescent, 4% visible
Pressure 30.06 in
Visibility 10.0 miles
Clouds Few 1000 ft
Dew Point 61 °F
Humidity 66%
Rainfall 0.00 in
Snow Depth Not available.
UV 9 out of 12
Pollen 7.00 out of 12
PM2.5 Moderate
Flu Activity Not available.
METAR KSFO 271856Z 31008KT 10SM FEW010 23/16 A3006 RMK AO2 SLP178 T02280161 $

More Conditions Fewer Conditions

Pressure 30.06 in
Visibility 10.0 miles
Clouds Few 1000 ft
Dew Point 61 °F
Humidity 66%
Rainfall 0.00 in
Snow Depth Not available.
UV 9 out of 12
Pollen 7.00 out of 12
PM2.5 Moderate
Flu Activity Not available.
METAR KSFO 271856Z 31008KT 10SM FEW010 23/16 A3006 RMK AO2 SLP178 T02280161 $

More Conditions Fewer Conditions

10-Day Weather Forecast

Almanac

Astronomy

Aug. 27, 2014 Rise Set
Actual Time 6:34 AM PDT 7:44 PM PDT
Civil Twilight 6:07 AM PDT 8:11 PM PDT
Nautical Twilight 5:35 AM PDT 8:43 PM PDT
Astronomical Twilight 5:01 AM PDT 9:17 PM PDT
Moon 8:32 AM PDT 8:43 PM PDT
Length of Visible Light 14h 04m
Length of Day
13h 10m
Tomorrow will be 2m 17s shorter.
Waxing Crescent, 4% of the Moon is Illuminated
Today
Waxing Crescent
Sep 2
First Quarter
Sep 8
Full
Sep 15
Last Quarter
Sep 24
New

Today's Extremes

State Highs State Lows

Community

WunderPhotos

Upload Photos

1,747,753 photos uploaded!

Nearby

Air Quality

  Air Quality AQ Index Pollutant
Yesterday Good
PM2.5
Yesterday Good
OZONE
Current Moderate
PM2.5
Wednesday Good
PM2.5
Thursday Good
PM2.5
Friday Good
PM2.5
Saturday Good
OZONE
Sunday Good
OZONE
Monday Good
OZONE

Snow Depth

Station Depth Elevation
Rubicon #2 0 in 7500 ft
Leavitt Lake 0 in 9400 ft
Adin Mountain 0 in 6200 ft

Earthquake Activity

City Distance Mag. Time & Date
Napa, California 42 miles 2.6 11:57 AM PDT
2014-08-27
The Geysers, California 88 miles 2.6 7:42 AM PDT
2014-08-27
Soledad, California 95 miles 2.6 12:15 PM PDT
2014-08-26
Napa, California 41 miles 2.5 10:56 AM PDT
2014-08-26
Minimum magnitude displayed is 2.5.

Coastal Water Temperatures

Place Temperature
No Stations Reporting

Nearby Weather Stations